sensor_id;sensor_type;location;lat;lon;timestamp;pressure;altitude;pressure_sealevel;temperature;humidity
55442;BME280;41313;58.740;50.174;2022-09-25T00:01:48;99298.06;;;14.35;72.71
55442;BME280;41313;58.740;50.174;2022-09-25T00:06:50;99300.94;;;14.32;73.04
55442;BME280;41313;58.740;50.174;2022-09-25T00:11:53;99303.94;;;14.39;72.84
55442;BME280;41313;58.740;50.174;2022-09-25T00:16:55;99302.84;;;14.42;73.04
55442;BME280;41313;58.740;50.174;2022-09-25T00:21:57;99301.28;;;14.39;73.19
55442;BME280;41313;58.740;50.174;2022-09-25T00:26:59;99293.72;;;14.46;72.65
55442;BME280;41313;58.740;50.174;2022-09-25T00:32:02;99304.19;;;14.36;73.02
55442;BME280;41313;58.740;50.174;2022-09-25T00:37:04;99320.66;;;14.40;72.83
55442;BME280;41313;58.740;50.174;2022-09-25T00:42:05;99326.16;;;14.36;73.24
55442;BME280;41313;58.740;50.174;2022-09-25T00:47:09;99320.50;;;14.41;72.55
55442;BME280;41313;58.740;50.174;2022-09-25T00:52:12;99337.59;;;14.37;72.38
55442;BME280;41313;58.740;50.174;2022-09-25T00:57:18;99341.59;;;14.20;73.39
55442;BME280;41313;58.740;50.174;2022-09-25T01:02:28;99340.75;;;14.31;72.93
55442;BME280;41313;58.740;50.174;2022-09-25T01:07:33;99332.66;;;14.32;73.19
55442;BME280;41313;58.740;50.174;2022-09-25T01:12:39;99338.22;;;14.29;73.47
55442;BME280;41313;58.740;50.174;2022-09-25T01:17:54;99338.19;;;14.41;72.80
55442;BME280;41313;58.740;50.174;2022-09-25T01:23:29;99332.56;;;14.34;73.29
55442;BME280;41313;58.740;50.174;2022-09-25T01:33:49;99324.78;;;14.21;73.86
55442;BME280;41313;58.740;50.174;2022-09-25T01:39:05;99331.75;;;14.22;73.78
55442;BME280;41313;58.740;50.174;2022-09-25T01:44:12;99331.00;;;14.31;73.49
55442;BME280;41313;58.740;50.174;2022-09-25T01:54:48;99341.78;;;14.40;72.98
55442;BME280;41313;58.740;50.174;2022-09-25T02:00:08;99322.91;;;14.44;73.03
55442;BME280;41313;58.740;50.174;2022-09-25T02:05:18;99336.81;;;14.14;73.72
55442;BME280;41313;58.740;50.174;2022-09-25T02:10:34;99339.53;;;14.24;72.91
55442;BME280;41313;58.740;50.174;2022-09-25T02:15:41;99336.91;;;14.12;73.91
55442;BME280;41313;58.740;50.174;2022-09-25T02:20:58;99339.19;;;14.28;73.08
55442;BME280;41313;58.740;50.174;2022-09-25T02:26:07;99335.38;;;14.10;73.82
55442;BME280;41313;58.740;50.174;2022-09-25T02:31:11;99321.44;;;14.08;73.96
55442;BME280;41313;58.740;50.174;2022-09-25T02:36:17;99326.50;;;14.11;73.75
55442;BME280;41313;58.740;50.174;2022-09-25T02:46:53;99347.63;;;14.11;73.59
55442;BME280;41313;58.740;50.174;2022-09-25T02:52:08;99356.03;;;14.16;74.08
55442;BME280;41313;58.740;50.174;2022-09-25T03:02:19;99347.47;;;14.24;73.48
55442;BME280;41313;58.740;50.174;2022-09-25T03:07:22;99332.25;;;14.16;73.77
55442;BME280;41313;58.740;50.174;2022-09-25T03:12:24;99327.06;;;14.26;73.27
55442;BME280;41313;58.740;50.174;2022-09-25T03:17:26;99321.44;;;14.19;73.31
55442;BME280;41313;58.740;50.174;2022-09-25T03:22:28;99324.56;;;14.13;73.53
55442;BME280;41313;58.740;50.174;2022-09-25T03:27:30;99329.00;;;14.12;73.91
55442;BME280;41313;58.740;50.174;2022-09-25T03:32:32;99333.94;;;14.06;73.94
55442;BME280;41313;58.740;50.174;2022-09-25T03:37:33;99337.31;;;14.08;74.02
55442;BME280;41313;58.740;50.174;2022-09-25T03:42:35;99347.63;;;14.00;74.21
55442;BME280;41313;58.740;50.174;2022-09-25T03:47:38;99354.47;;;14.02;73.87
55442;BME280;41313;58.740;50.174;2022-09-25T03:52:40;99355.31;;;14.03;74.23
55442;BME280;41313;58.740;50.174;2022-09-25T03:57:41;99355.66;;;14.09;73.95
55442;BME280;41313;58.740;50.174;2022-09-25T04:02:43;99371.63;;;14.19;74.12
55442;BME280;41313;58.740;50.174;2022-09-25T04:07:45;99351.91;;;14.23;74.00
55442;BME280;41313;58.740;50.174;2022-09-25T04:12:46;99363.41;;;14.33;73.61
55442;BME280;41313;58.740;50.174;2022-09-25T04:17:49;99364.84;;;14.38;73.34
55442;BME280;41313;58.740;50.174;2022-09-25T04:22:50;99370.41;;;14.34;73.35
55442;BME280;41313;58.740;50.174;2022-09-25T04:27:55;99376.69;;;14.22;73.42
55442;BME280;41313;58.740;50.174;2022-09-25T04:32:59;99390.13;;;14.19;73.51
55442;BME280;41313;58.740;50.174;2022-09-25T04:38:19;99382.53;;;14.37;73.67
55442;BME280;41313;58.740;50.174;2022-09-25T04:43:21;99391.06;;;14.29;73.47
55442;BME280;41313;58.740;50.174;2022-09-25T04:48:23;99386.25;;;14.34;73.52
55442;BME280;41313;58.740;50.174;2022-09-25T04:53:25;99384.31;;;14.36;73.39
55442;BME280;41313;58.740;50.174;2022-09-25T04:58:28;99366.56;;;14.27;73.49
55442;BME280;41313;58.740;50.174;2022-09-25T05:03:29;99389.59;;;14.36;73.43
55442;BME280;41313;58.740;50.174;2022-09-25T05:08:31;99384.81;;;14.30;73.43
55442;BME280;41313;58.740;50.174;2022-09-25T05:13:33;99389.84;;;14.33;73.47
55442;BME280;41313;58.740;50.174;2022-09-25T05:18:34;99375.94;;;14.31;73.65
55442;BME280;41313;58.740;50.174;2022-09-25T05:23:36;99383.84;;;14.43;73.30
55442;BME280;41313;58.740;50.174;2022-09-25T05:28:38;99384.91;;;14.40;73.79
55442;BME280;41313;58.740;50.174;2022-09-25T05:33:39;99381.81;;;14.35;73.96
55442;BME280;41313;58.740;50.174;2022-09-25T05:38:41;99376.75;;;14.32;74.05
55442;BME280;41313;58.740;50.174;2022-09-25T05:43:45;99385.75;;;14.41;73.66
55442;BME280;41313;58.740;50.174;2022-09-25T05:48:50;99378.81;;;14.40;73.64
55442;BME280;41313;58.740;50.174;2022-09-25T05:53:52;99400.38;;;14.45;73.54
55442;BME280;41313;58.740;50.174;2022-09-25T05:58:54;99399.44;;;14.46;73.48
55442;BME280;41313;58.740;50.174;2022-09-25T06:03:59;99389.84;;;14.33;74.10
55442;BME280;41313;58.740;50.174;2022-09-25T06:09:00;99393.22;;;14.35;73.96
55442;BME280;41313;58.740;50.174;2022-09-25T06:14:02;99392.97;;;14.39;74.35
55442;BME280;41313;58.740;50.174;2022-09-25T06:19:04;99386.66;;;14.51;73.71
55442;BME280;41313;58.740;50.174;2022-09-25T06:24:07;99386.19;;;14.57;74.13
55442;BME280;41313;58.740;50.174;2022-09-25T06:29:11;99382.47;;;14.59;73.98
55442;BME280;41313;58.740;50.174;2022-09-25T06:34:13;99382.19;;;14.74;73.58
55442;BME280;41313;58.740;50.174;2022-09-25T06:39:16;99374.75;;;14.68;73.79
55442;BME280;41313;58.740;50.174;2022-09-25T06:44:19;99370.34;;;14.57;73.77
55442;BME280;41313;58.740;50.174;2022-09-25T06:49:24;99374.25;;;14.74;73.75
55442;BME280;41313;58.740;50.174;2022-09-25T06:54:29;99371.38;;;14.66;73.80
55442;BME280;41313;58.740;50.174;2022-09-25T06:59:32;99371.41;;;14.87;73.82
55442;BME280;41313;58.740;50.174;2022-09-25T07:04:34;99373.53;;;14.93;73.57
55442;BME280;41313;58.740;50.174;2022-09-25T07:09:36;99378.84;;;14.93;73.60
55442;BME280;41313;58.740;50.174;2022-09-25T07:14:38;99372.84;;;14.91;73.60
55442;BME280;41313;58.740;50.174;2022-09-25T07:19:43;99366.63;;;14.80;73.56
55442;BME280;41313;58.740;50.174;2022-09-25T07:24:46;99358.00;;;14.78;74.29
55442;BME280;41313;58.740;50.174;2022-09-25T07:29:50;99351.16;;;14.76;73.77
55442;BME280;41313;58.740;50.174;2022-09-25T07:34:52;99343.66;;;14.60;74.23
55442;BME280;41313;58.740;50.174;2022-09-25T07:39:54;99347.06;;;14.72;74.24
55442;BME280;41313;58.740;50.174;2022-09-25T07:44:55;99346.38;;;14.70;74.12
55442;BME280;41313;58.740;50.174;2022-09-25T07:49:58;99341.16;;;14.58;74.49
55442;BME280;41313;58.740;50.174;2022-09-25T07:55:00;99323.50;;;14.36;74.63
55442;BME280;41313;58.740;50.174;2022-09-25T08:00:04;99323.94;;;14.21;75.32
55442;BME280;41313;58.740;50.174;2022-09-25T08:05:14;99322.53;;;14.05;75.63
55442;BME280;41313;58.740;50.174;2022-09-25T08:10:16;99327.97;;;13.93;76.09
55442;BME280;41313;58.740;50.174;2022-09-25T08:15:18;99313.31;;;13.88;76.60
55442;BME280;41313;58.740;50.174;2022-09-25T08:20:20;99324.84;;;13.99;76.29
55442;BME280;41313;58.740;50.174;2022-09-25T08:25:23;99324.19;;;14.06;76.28
55442;BME280;41313;58.740;50.174;2022-09-25T08:30:25;99322.81;;;14.34;75.81
55442;BME280;41313;58.740;50.174;2022-09-25T08:35:28;99339.19;;;14.28;75.59
55442;BME280;41313;58.740;50.174;2022-09-25T08:40:30;99344.47;;;14.28;75.63
55442;BME280;41313;58.740;50.174;2022-09-25T08:45:34;99344.44;;;14.40;75.14
55442;BME280;41313;58.740;50.174;2022-09-25T08:50:56;99342.63;;;14.40;74.75
55442;BME280;41313;58.740;50.174;2022-09-25T08:55:59;99357.16;;;14.46;74.73
55442;BME280;41313;58.740;50.174;2022-09-25T09:01:24;99351.88;;;14.46;74.79
55442;BME280;41313;58.740;50.174;2022-09-25T09:06:27;99365.09;;;14.46;74.88
55442;BME280;41313;58.740;50.174;2022-09-25T09:12:01;99360.31;;;14.28;75.00
55442;BME280;41313;58.740;50.174;2022-09-25T09:17:11;99363.41;;;14.33;75.23
55442;BME280;41313;58.740;50.174;2022-09-25T09:22:43;99361.25;;;14.39;74.94
55442;BME280;41313;58.740;50.174;2022-09-25T09:28:20;99362.06;;;14.39;75.03
55442;BME280;41313;58.740;50.174;2022-09-25T09:34:01;99362.56;;;14.33;74.30
55442;BME280;41313;58.740;50.174;2022-09-25T09:39:22;99365.84;;;14.25;74.78
55442;BME280;41313;58.740;50.174;2022-09-25T09:49:47;99345.47;;;14.16;75.17
55442;BME280;41313;58.740;50.174;2022-09-25T09:59:59;99345.00;;;14.00;75.72
55442;BME280;41313;58.740;50.174;2022-09-25T10:05:32;99349.84;;;13.83;75.99
55442;BME280;41313;58.740;50.174;2022-09-25T10:10:40;99339.13;;;13.74;76.31
55442;BME280;41313;58.740;50.174;2022-09-25T10:21:03;99326.78;;;13.29;78.05
55442;BME280;41313;58.740;50.174;2022-09-25T10:26:35;99338.19;;;13.41;77.93
55442;BME280;41313;58.740;50.174;2022-09-25T10:31:39;99321.31;;;13.08;78.32
55442;BME280;41313;58.740;50.174;2022-09-25T10:36:44;99301.59;;;13.25;77.36
55442;BME280;41313;58.740;50.174;2022-09-25T10:41:47;99299.69;;;13.27;77.64
55442;BME280;41313;58.740;50.174;2022-09-25T10:46:49;99294.88;;;13.32;77.76
55442;BME280;41313;58.740;50.174;2022-09-25T10:52:19;99291.31;;;13.33;77.67
55442;BME280;41313;58.740;50.174;2022-09-25T10:57:33;99271.50;;;13.28;77.38
55442;BME280;41313;58.740;50.174;2022-09-25T11:02:40;99260.44;;;13.22;77.04
55442;BME280;41313;58.740;50.174;2022-09-25T11:07:51;99252.38;;;13.02;77.50
55442;BME280;41313;58.740;50.174;2022-09-25T11:12:56;99234.56;;;12.47;78.88
55442;BME280;41313;58.740;50.174;2022-09-25T11:17:58;99213.47;;;12.47;78.80
55442;BME280;41313;58.740;50.174;2022-09-25T11:33:44;99216.16;;;12.59;77.77
55442;BME280;41313;58.740;50.174;2022-09-25T11:38:55;99208.38;;;12.68;77.65
55442;BME280;41313;58.740;50.174;2022-09-25T11:44:33;99216.72;;;12.51;78.12
55442;BME280;41313;58.740;50.174;2022-09-25T11:49:40;99212.84;;;12.32;78.75
55442;BME280;41313;58.740;50.174;2022-09-25T12:05:41;99202.63;;;12.17;78.54
55442;BME280;41313;58.740;50.174;2022-09-25T12:16:15;99194.13;;;12.24;78.29
55442;BME280;41313;58.740;50.174;2022-09-25T12:21:42;99188.34;;;12.43;78.13
55442;BME280;41313;58.740;50.174;2022-09-25T12:27:00;99189.22;;;12.20;78.13
55442;BME280;41313;58.740;50.174;2022-09-25T12:32:23;99185.84;;;12.18;77.84
55442;BME280;41313;58.740;50.174;2022-09-25T12:37:38;99174.72;;;12.14;77.72
55442;BME280;41313;58.740;50.174;2022-09-25T12:42:57;99175.06;;;12.09;77.24
55442;BME280;41313;58.740;50.174;2022-09-25T12:48:13;99176.72;;;11.99;77.30
55442;BME280;41313;58.740;50.174;2022-09-25T12:53:31;99178.66;;;12.08;77.27
55442;BME280;41313;58.740;50.174;2022-09-25T12:58:53;99174.41;;;12.30;77.05
55442;BME280;41313;58.740;50.174;2022-09-25T13:04:26;99169.63;;;12.35;76.82
55442;BME280;41313;58.740;50.174;2022-09-25T13:14:47;99149.94;;;12.17;77.45
55442;BME280;41313;58.740;50.174;2022-09-25T13:19:51;99139.56;;;11.91;78.61
55442;BME280;41313;58.740;50.174;2022-09-25T13:25:26;99135.66;;;11.73;78.92
55442;BME280;41313;58.740;50.174;2022-09-25T13:30:28;99135.69;;;11.60;79.20
55442;BME280;41313;58.740;50.174;2022-09-25T13:35:31;99135.53;;;11.50;79.92
55442;BME280;41313;58.740;50.174;2022-09-25T13:40:37;99128.16;;;11.55;79.59
55442;BME280;41313;58.740;50.174;2022-09-25T13:45:48;99124.63;;;11.44;79.87
55442;BME280;41313;58.740;50.174;2022-09-25T13:56:23;99121.44;;;11.51;79.65
55442;BME280;41313;58.740;50.174;2022-09-25T14:06:47;99094.84;;;11.43;78.74
55442;BME280;41313;58.740;50.174;2022-09-25T14:12:06;99081.06;;;11.63;78.62
55442;BME280;41313;58.740;50.174;2022-09-25T14:17:14;99078.19;;;11.67;78.17
55442;BME280;41313;58.740;50.174;2022-09-25T14:22:38;99076.50;;;11.66;77.92
55442;BME280;41313;58.740;50.174;2022-09-25T14:27:50;99071.78;;;11.82;77.96
55442;BME280;41313;58.740;50.174;2022-09-25T14:44:10;99040.53;;;11.77;77.50
55442;BME280;41313;58.740;50.174;2022-09-25T14:54:31;99012.88;;;11.60;78.08
55442;BME280;41313;58.740;50.174;2022-09-25T14:59:49;99002.13;;;11.63;78.03
55442;BME280;41313;58.740;50.174;2022-09-25T15:05:05;98985.69;;;11.60;77.90
55442;BME280;41313;58.740;50.174;2022-09-25T15:10:34;98990.88;;;11.73;76.97
55442;BME280;41313;58.740;50.174;2022-09-25T15:15:37;98979.75;;;11.69;77.16
55442;BME280;41313;58.740;50.174;2022-09-25T15:20:45;98983.69;;;11.63;76.54
55442;BME280;41313;58.740;50.174;2022-09-25T15:25:50;98985.97;;;11.79;76.43
55442;BME280;41313;58.740;50.174;2022-09-25T15:30:55;98973.88;;;11.77;76.45
55442;BME280;41313;58.740;50.174;2022-09-25T15:36:00;98965.50;;;11.72;76.34
55442;BME280;41313;58.740;50.174;2022-09-25T15:41:12;98966.44;;;11.59;75.57
55442;BME280;41313;58.740;50.174;2022-09-25T15:46:25;98964.19;;;11.55;75.96
55442;BME280;41313;58.740;50.174;2022-09-25T15:51:32;98957.09;;;11.44;75.64
55442;BME280;41313;58.740;50.174;2022-09-25T15:56:48;98967.75;;;11.54;75.41
55442;BME280;41313;58.740;50.174;2022-09-25T16:01:53;98967.88;;;11.52;74.88
55442;BME280;41313;58.740;50.174;2022-09-25T16:07:34;98968.59;;;11.54;74.72
55442;BME280;41313;58.740;50.174;2022-09-25T16:17:42;98949.22;;;11.55;74.69
55442;BME280;41313;58.740;50.174;2022-09-25T16:22:46;98944.56;;;11.59;74.50
55442;BME280;41313;58.740;50.174;2022-09-25T16:27:52;98944.44;;;11.72;74.50
55442;BME280;41313;58.740;50.174;2022-09-25T16:33:01;98931.31;;;11.60;74.65
55442;BME280;41313;58.740;50.174;2022-09-25T16:38:05;98925.16;;;11.60;74.11
55442;BME280;41313;58.740;50.174;2022-09-25T16:43:26;98911.44;;;11.68;73.98
55442;BME280;41313;58.740;50.174;2022-09-25T16:48:43;98908.81;;;11.68;73.74
55442;BME280;41313;58.740;50.174;2022-09-25T16:53:50;98898.28;;;11.68;73.98
55442;BME280;41313;58.740;50.174;2022-09-25T16:58:52;98902.09;;;11.52;73.82
55442;BME280;41313;58.740;50.174;2022-09-25T17:03:55;98906.53;;;11.52;73.66
55442;BME280;41313;58.740;50.174;2022-09-25T17:08:59;98901.88;;;11.55;73.43
55442;BME280;41313;58.740;50.174;2022-09-25T17:14:01;98901.88;;;11.55;73.80
55442;BME280;41313;58.740;50.174;2022-09-25T17:19:12;98886.88;;;11.45;74.20
55442;BME280;41313;58.740;50.174;2022-09-25T17:24:20;98888.91;;;11.18;74.28
55442;BME280;41313;58.740;50.174;2022-09-25T17:29:24;98880.94;;;10.96;76.25
55442;BME280;41313;58.740;50.174;2022-09-25T17:34:29;98869.69;;;10.94;77.50
55442;BME280;41313;58.740;50.174;2022-09-25T17:39:37;98866.34;;;10.92;77.38
55442;BME280;41313;58.740;50.174;2022-09-25T17:44:40;98863.44;;;10.84;77.99
55442;BME280;41313;58.740;50.174;2022-09-25T17:49:43;98853.13;;;10.69;78.46
55442;BME280;41313;58.740;50.174;2022-09-25T17:54:51;98847.81;;;10.58;79.10
55442;BME280;41313;58.740;50.174;2022-09-25T17:59:52;98843.91;;;10.40;79.73
55442;BME280;41313;58.740;50.174;2022-09-25T18:04:55;98837.09;;;10.37;79.87
55442;BME280;41313;58.740;50.174;2022-09-25T18:09:57;98832.19;;;10.33;79.95
55442;BME280;41313;58.740;50.174;2022-09-25T18:15:00;98828.50;;;10.22;80.18
55442;BME280;41313;58.740;50.174;2022-09-25T18:20:05;98824.41;;;10.31;80.22
55442;BME280;41313;58.740;50.174;2022-09-25T18:25:26;98817.09;;;10.23;80.35
55442;BME280;41313;58.740;50.174;2022-09-25T18:30:28;98816.78;;;10.15;80.53
55442;BME280;41313;58.740;50.174;2022-09-25T18:35:31;98814.63;;;10.09;80.54
55442;BME280;41313;58.740;50.174;2022-09-25T18:40:33;98826.44;;;9.91;80.47
55442;BME280;41313;58.740;50.174;2022-09-25T18:45:36;98799.78;;;9.84;80.32
55442;BME280;41313;58.740;50.174;2022-09-25T18:50:39;98810.09;;;9.74;80.88
55442;BME280;41313;58.740;50.174;2022-09-25T18:55:41;98813.69;;;9.73;80.64
55442;BME280;41313;58.740;50.174;2022-09-25T19:00:43;98800.28;;;9.52;81.36
55442;BME280;41313;58.740;50.174;2022-09-25T19:05:57;98800.16;;;9.54;81.49
55442;BME280;41313;58.740;50.174;2022-09-25T19:11:00;98787.06;;;9.54;81.21
55442;BME280;41313;58.740;50.174;2022-09-25T19:16:06;98781.94;;;9.52;81.19
55442;BME280;41313;58.740;50.174;2022-09-25T19:21:13;98782.66;;;9.42;81.52
55442;BME280;41313;58.740;50.174;2022-09-25T19:26:19;98785.94;;;9.32;82.03
55442;BME280;41313;58.740;50.174;2022-09-25T19:31:24;98779.94;;;9.30;82.53
55442;BME280;41313;58.740;50.174;2022-09-25T19:36:29;98780.69;;;9.07;82.03
55442;BME280;41313;58.740;50.174;2022-09-25T19:41:33;98785.44;;;9.02;82.39
55442;BME280;41313;58.740;50.174;2022-09-25T19:46:35;98778.06;;;9.07;82.27
55442;BME280;41313;58.740;50.174;2022-09-25T19:51:37;98776.84;;;8.87;81.80
55442;BME280;41313;58.740;50.174;2022-09-25T19:56:39;98771.81;;;8.97;82.59
55442;BME280;41313;58.740;50.174;2022-09-25T20:01:42;98772.66;;;8.84;82.19
55442;BME280;41313;58.740;50.174;2022-09-25T20:06:44;98772.22;;;8.90;81.89
55442;BME280;41313;58.740;50.174;2022-09-25T20:11:46;98772.22;;;8.90;82.17
55442;BME280;41313;58.740;50.174;2022-09-25T20:16:48;98763.50;;;8.77;82.16
55442;BME280;41313;58.740;50.174;2022-09-25T20:21:49;98770.97;;;8.83;82.08
55442;BME280;41313;58.740;50.174;2022-09-25T20:26:53;98779.44;;;8.74;82.56
55442;BME280;41313;58.740;50.174;2022-09-25T20:31:55;98792.72;;;8.58;82.67
55442;BME280;41313;58.740;50.174;2022-09-25T20:36:57;98794.94;;;8.64;82.72
55442;BME280;41313;58.740;50.174;2022-09-25T20:41:58;98798.34;;;8.39;83.22
55442;BME280;41313;58.740;50.174;2022-09-25T20:47:00;98802.78;;;8.52;82.93
55442;BME280;41313;58.740;50.174;2022-09-25T20:52:02;98796.81;;;8.35;83.00
55442;BME280;41313;58.740;50.174;2022-09-25T20:57:04;98797.63;;;8.50;82.79
55442;BME280;41313;58.740;50.174;2022-09-25T21:02:08;98802.34;;;8.45;83.32
55442;BME280;41313;58.740;50.174;2022-09-25T21:07:10;98798.91;;;8.30;82.75
55442;BME280;41313;58.740;50.174;2022-09-25T21:12:12;98797.69;;;8.36;82.54
55442;BME280;41313;58.740;50.174;2022-09-25T21:17:15;98790.09;;;8.31;83.41
55442;BME280;41313;58.740;50.174;2022-09-25T21:22:17;98788.84;;;8.24;83.04
55442;BME280;41313;58.740;50.174;2022-09-25T21:27:18;98784.47;;;8.37;83.35
55442;BME280;41313;58.740;50.174;2022-09-25T21:32:20;98792.81;;;8.30;83.03
55442;BME280;41313;58.740;50.174;2022-09-25T21:37:22;98777.50;;;8.23;83.51
55442;BME280;41313;58.740;50.174;2022-09-25T21:42:24;98777.00;;;8.18;83.49
55442;BME280;41313;58.740;50.174;2022-09-25T21:47:26;98786.16;;;8.11;83.22
55442;BME280;41313;58.740;50.174;2022-09-25T21:52:28;98776.00;;;8.07;82.42
55442;BME280;41313;58.740;50.174;2022-09-25T21:57:30;98768.69;;;8.12;82.73
55442;BME280;41313;58.740;50.174;2022-09-25T22:02:32;98771.84;;;8.17;82.98
55442;BME280;41313;58.740;50.174;2022-09-25T22:07:34;98763.16;;;8.16;82.63
55442;BME280;41313;58.740;50.174;2022-09-25T22:12:36;98777.06;;;8.17;83.33
55442;BME280;41313;58.740;50.174;2022-09-25T22:17:38;98760.50;;;8.04;82.89
55442;BME280;41313;58.740;50.174;2022-09-25T22:22:39;98772.56;;;8.06;83.01
55442;BME280;41313;58.740;50.174;2022-09-25T22:27:41;98769.94;;;8.06;82.46
55442;BME280;41313;58.740;50.174;2022-09-25T22:32:43;98764.44;;;7.96;82.62
55442;BME280;41313;58.740;50.174;2022-09-25T22:37:45;98774.78;;;7.85;83.20
55442;BME280;41313;58.740;50.174;2022-09-25T22:42:47;98767.69;;;7.73;82.57
55442;BME280;41313;58.740;50.174;2022-09-25T22:47:49;98775.13;;;7.79;83.69
55442;BME280;41313;58.740;50.174;2022-09-25T22:52:50;98765.44;;;7.81;83.12
55442;BME280;41313;58.740;50.174;2022-09-25T22:57:52;98784.47;;;7.83;82.77
55442;BME280;41313;58.740;50.174;2022-09-25T23:02:54;98778.66;;;7.92;82.35
55442;BME280;41313;58.740;50.174;2022-09-25T23:07:56;98772.72;;;7.76;83.54
55442;BME280;41313;58.740;50.174;2022-09-25T23:12:57;98770.75;;;7.52;83.23
55442;BME280;41313;58.740;50.174;2022-09-25T23:17:59;98770.34;;;7.59;83.16
55442;BME280;41313;58.740;50.174;2022-09-25T23:23:01;98771.06;;;7.61;83.66
55442;BME280;41313;58.740;50.174;2022-09-25T23:28:05;98771.38;;;7.56;83.06
55442;BME280;41313;58.740;50.174;2022-09-25T23:33:07;98778.09;;;7.60;82.73
55442;BME280;41313;58.740;50.174;2022-09-25T23:38:09;98775.03;;;7.53;83.70
55442;BME280;41313;58.740;50.174;2022-09-25T23:43:11;98769.22;;;7.63;83.59
55442;BME280;41313;58.740;50.174;2022-09-25T23:48:13;98779.75;;;7.61;83.87
55442;BME280;41313;58.740;50.174;2022-09-25T23:53:16;98770.44;;;7.57;83.00
55442;BME280;41313;58.740;50.174;2022-09-25T23:58:17;98781.84;;;7.56;83.39
